sensor_id;sensor_type;location;lat;lon;timestamp;temperature;humidity
4201;DHT22;2114;50.398;8.814;2022-08-21T00:00:34;21.20;90.20
4201;DHT22;2114;50.398;8.814;2022-08-21T00:05:39;21.10;90.50
4201;DHT22;2114;50.398;8.814;2022-08-21T00:10:40;21.10;90.70
4201;DHT22;2114;50.398;8.814;2022-08-21T00:15:41;20.90;90.90
4201;DHT22;2114;50.398;8.814;2022-08-21T00:20:43;20.90;91.20
4201;DHT22;2114;50.398;8.814;2022-08-21T00:25:45;20.80;91.60
4201;DHT22;2114;50.398;8.814;2022-08-21T00:30:46;20.80;91.90
4201;DHT22;2114;50.398;8.814;2022-08-21T00:35:46;20.70;92.30
4201;DHT22;2114;50.398;8.814;2022-08-21T00:40:53;20.70;92.60
4201;DHT22;2114;50.398;8.814;2022-08-21T00:45:54;20.70;92.90
4201;DHT22;2114;50.398;8.814;2022-08-21T00:51:08;20.70;93.10
4201;DHT22;2114;50.398;8.814;2022-08-21T00:56:11;20.70;93.20
4201;DHT22;2114;50.398;8.814;2022-08-21T01:01:13;20.60;93.20
4201;DHT22;2114;50.398;8.814;2022-08-21T01:06:14;20.50;93.90
4201;DHT22;2114;50.398;8.814;2022-08-21T01:11:15;20.50;94.00
4201;DHT22;2114;50.398;8.814;2022-08-21T01:16:19;20.50;94.20
4201;DHT22;2114;50.398;8.814;2022-08-21T01:21:23;20.40;94.20
4201;DHT22;2114;50.398;8.814;2022-08-21T01:26:28;20.30;94.50
4201;DHT22;2114;50.398;8.814;2022-08-21T01:31:30;20.20;94.70
4201;DHT22;2114;50.398;8.814;2022-08-21T01:36:33;20.10;95.40
4201;DHT22;2114;50.398;8.814;2022-08-21T01:41:34;20.00;95.70
4201;DHT22;2114;50.398;8.814;2022-08-21T01:46:35;19.90;96.40
4201;DHT22;2114;50.398;8.814;2022-08-21T01:51:35;19.80;96.90
4201;DHT22;2114;50.398;8.814;2022-08-21T01:56:41;19.70;97.50
4201;DHT22;2114;50.398;8.814;2022-08-21T02:01:42;19.60;97.90
4201;DHT22;2114;50.398;8.814;2022-08-21T02:06:43;19.60;98.10
4201;DHT22;2114;50.398;8.814;2022-08-21T02:11:44;19.50;98.40
4201;DHT22;2114;50.398;8.814;2022-08-21T02:16:45;19.50;98.70
4201;DHT22;2114;50.398;8.814;2022-08-21T02:21:46;19.50;99.00
4201;DHT22;2114;50.398;8.814;2022-08-21T02:26:46;19.40;99.60
4201;DHT22;2114;50.398;8.814;2022-08-21T02:31:47;19.20;99.90
4201;DHT22;2114;50.398;8.814;2022-08-21T02:36:48;19.10;99.90
4201;DHT22;2114;50.398;8.814;2022-08-21T02:41:48;19.00;99.90
4201;DHT22;2114;50.398;8.814;2022-08-21T02:46:49;19.00;99.90
4201;DHT22;2114;50.398;8.814;2022-08-21T02:51:49;19.00;99.90
4201;DHT22;2114;50.398;8.814;2022-08-21T02:56:50;19.00;99.90
4201;DHT22;2114;50.398;8.814;2022-08-21T03:01:50;18.90;99.90
4201;DHT22;2114;50.398;8.814;2022-08-21T03:06:51;18.90;99.90
4201;DHT22;2114;50.398;8.814;2022-08-21T03:11:52;18.90;99.90
4201;DHT22;2114;50.398;8.814;2022-08-21T03:16:53;18.80;99.90
4201;DHT22;2114;50.398;8.814;2022-08-21T03:21:54;18.80;99.90
4201;DHT22;2114;50.398;8.814;2022-08-21T03:26:54;18.80;99.90
4201;DHT22;2114;50.398;8.814;2022-08-21T03:31:55;18.80;99.90
4201;DHT22;2114;50.398;8.814;2022-08-21T03:36:56;18.80;99.90
4201;DHT22;2114;50.398;8.814;2022-08-21T03:41:56;18.80;99.90
4201;DHT22;2114;50.398;8.814;2022-08-21T03:46:58;18.80;99.90
4201;DHT22;2114;50.398;8.814;2022-08-21T03:52:00;18.70;99.90
4201;DHT22;2114;50.398;8.814;2022-08-21T03:57:01;18.70;99.90
4201;DHT22;2114;50.398;8.814;2022-08-21T04:02:04;18.70;99.90
4201;DHT22;2114;50.398;8.814;2022-08-21T04:07:05;18.60;99.90
4201;DHT22;2114;50.398;8.814;2022-08-21T04:12:06;18.50;99.90
4201;DHT22;2114;50.398;8.814;2022-08-21T04:17:07;18.50;99.90
4201;DHT22;2114;50.398;8.814;2022-08-21T04:22:07;18.40;99.90
4201;DHT22;2114;50.398;8.814;2022-08-21T04:27:08;18.40;99.90
4201;DHT22;2114;50.398;8.814;2022-08-21T04:32:09;18.30;99.90
4201;DHT22;2114;50.398;8.814;2022-08-21T04:37:09;18.30;99.90
4201;DHT22;2114;50.398;8.814;2022-08-21T04:42:10;18.20;99.90
4201;DHT22;2114;50.398;8.814;2022-08-21T04:47:10;18.30;99.90
4201;DHT22;2114;50.398;8.814;2022-08-21T04:52:14;18.20;99.90
4201;DHT22;2114;50.398;8.814;2022-08-21T04:57:15;18.20;99.90
4201;DHT22;2114;50.398;8.814;2022-08-21T05:02:16;18.20;99.90
4201;DHT22;2114;50.398;8.814;2022-08-21T05:07:21;18.20;99.90
4201;DHT22;2114;50.398;8.814;2022-08-21T05:12:23;18.30;99.90
4201;DHT22;2114;50.398;8.814;2022-08-21T05:17:23;18.30;99.90
4201;DHT22;2114;50.398;8.814;2022-08-21T05:22:24;18.30;99.90
4201;DHT22;2114;50.398;8.814;2022-08-21T05:27:25;18.40;99.90
4201;DHT22;2114;50.398;8.814;2022-08-21T05:32:25;18.40;99.90
4201;DHT22;2114;50.398;8.814;2022-08-21T05:37:28;18.40;99.90
4201;DHT22;2114;50.398;8.814;2022-08-21T05:42:28;18.40;99.90
4201;DHT22;2114;50.398;8.814;2022-08-21T05:47:29;18.50;99.90
4201;DHT22;2114;50.398;8.814;2022-08-21T05:52:29;18.50;99.90
4201;DHT22;2114;50.398;8.814;2022-08-21T05:57:30;18.80;99.90
4201;DHT22;2114;50.398;8.814;2022-08-21T06:02:31;19.00;99.90
4201;DHT22;2114;50.398;8.814;2022-08-21T06:07:31;19.20;99.90
4201;DHT22;2114;50.398;8.814;2022-08-21T06:12:32;19.40;99.90
4201;DHT22;2114;50.398;8.814;2022-08-21T06:17:33;19.70;99.90
4201;DHT22;2114;50.398;8.814;2022-08-21T06:22:33;19.80;99.90
4201;DHT22;2114;50.398;8.814;2022-08-21T06:27:34;19.90;99.90
4201;DHT22;2114;50.398;8.814;2022-08-21T06:32:34;19.90;99.90
4201;DHT22;2114;50.398;8.814;2022-08-21T06:37:35;19.90;99.90
4201;DHT22;2114;50.398;8.814;2022-08-21T06:42:36;19.90;99.90
4201;DHT22;2114;50.398;8.814;2022-08-21T06:47:37;19.90;99.90
4201;DHT22;2114;50.398;8.814;2022-08-21T06:52:38;19.90;99.90
4201;DHT22;2114;50.398;8.814;2022-08-21T06:57:38;19.90;99.90
4201;DHT22;2114;50.398;8.814;2022-08-21T07:02:39;20.00;99.90
4201;DHT22;2114;50.398;8.814;2022-08-21T07:07:40;20.10;99.90
4201;DHT22;2114;50.398;8.814;2022-08-21T07:12:41;20.30;99.90
4201;DHT22;2114;50.398;8.814;2022-08-21T07:17:41;20.40;99.90
4201;DHT22;2114;50.398;8.814;2022-08-21T07:22:42;20.50;99.90
4201;DHT22;2114;50.398;8.814;2022-08-21T07:27:44;20.70;99.90
4201;DHT22;2114;50.398;8.814;2022-08-21T07:32:44;20.90;99.90
4201;DHT22;2114;50.398;8.814;2022-08-21T07:37:45;21.10;99.90
4201;DHT22;2114;50.398;8.814;2022-08-21T07:42:47;21.40;99.90
4201;DHT22;2114;50.398;8.814;2022-08-21T07:47:50;21.80;99.90
4201;DHT22;2114;50.398;8.814;2022-08-21T07:52:51;22.00;99.90
4201;DHT22;2114;50.398;8.814;2022-08-21T07:57:53;22.40;99.90
4201;DHT22;2114;50.398;8.814;2022-08-21T08:02:55;22.70;99.90
4201;DHT22;2114;50.398;8.814;2022-08-21T08:07:56;23.10;99.90
4201;DHT22;2114;50.398;8.814;2022-08-21T08:12:56;23.60;99.90
4201;DHT22;2114;50.398;8.814;2022-08-21T08:17:57;23.90;99.90
4201;DHT22;2114;50.398;8.814;2022-08-21T08:22:58;24.40;99.90
4201;DHT22;2114;50.398;8.814;2022-08-21T08:27:59;24.80;99.90
4201;DHT22;2114;50.398;8.814;2022-08-21T08:33:00;25.70;99.40
4201;DHT22;2114;50.398;8.814;2022-08-21T08:38:01;26.10;99.90
4201;DHT22;2114;50.398;8.814;2022-08-21T08:43:01;26.50;98.60
4201;DHT22;2114;50.398;8.814;2022-08-21T08:48:06;27.20;97.10
4201;DHT22;2114;50.398;8.814;2022-08-21T08:53:15;27.10;96.40
4201;DHT22;2114;50.398;8.814;2022-08-21T08:58:27;27.30;95.10
4201;DHT22;2114;50.398;8.814;2022-08-21T09:03:30;27.00;92.40
4201;DHT22;2114;50.398;8.814;2022-08-21T09:14:10;28.80;88.40
4201;DHT22;2114;50.398;8.814;2022-08-21T09:24:32;29.40;81.70
4201;DHT22;2114;50.398;8.814;2022-08-21T09:29:37;30.00;83.30
4201;DHT22;2114;50.398;8.814;2022-08-21T09:34:38;30.60;81.30
4201;DHT22;2114;50.398;8.814;2022-08-21T09:39:39;31.30;74.60
4201;DHT22;2114;50.398;8.814;2022-08-21T09:44:41;31.60;75.00
4201;DHT22;2114;50.398;8.814;2022-08-21T09:49:44;31.70;74.70
4201;DHT22;2114;50.398;8.814;2022-08-21T09:54:46;32.30;70.30
4201;DHT22;2114;50.398;8.814;2022-08-21T09:59:47;32.80;66.10
4201;DHT22;2114;50.398;8.814;2022-08-21T10:04:55;32.80;66.70
4201;DHT22;2114;50.398;8.814;2022-08-21T10:31:39;34.10;60.90
4201;DHT22;2114;50.398;8.814;2022-08-21T10:37:18;34.00;60.00
4201;DHT22;2114;50.398;8.814;2022-08-21T10:47:42;33.50;59.30
4201;DHT22;2114;50.398;8.814;2022-08-21T10:52:56;33.00;58.30
4201;DHT22;2114;50.398;8.814;2022-08-21T10:58:08;32.70;59.50
4201;DHT22;2114;50.398;8.814;2022-08-21T11:08:14;33.70;58.00
4201;DHT22;2114;50.398;8.814;2022-08-21T11:13:24;34.00;57.60
4201;DHT22;2114;50.398;8.814;2022-08-21T11:18:55;34.40;56.90
4201;DHT22;2114;50.398;8.814;2022-08-21T11:29:33;35.30;54.60
4201;DHT22;2114;50.398;8.814;2022-08-21T11:45:22;36.90;53.80
4201;DHT22;2114;50.398;8.814;2022-08-21T11:50:29;37.20;51.50
4201;DHT22;2114;50.398;8.814;2022-08-21T12:00:40;37.80;48.60
4201;DHT22;2114;50.398;8.814;2022-08-21T12:05:53;37.80;49.00
4201;DHT22;2114;50.398;8.814;2022-08-21T12:16:08;38.30;46.50
4201;DHT22;2114;50.398;8.814;2022-08-21T12:21:21;38.20;45.90
4201;DHT22;2114;50.398;8.814;2022-08-21T12:26:27;37.60;47.30
4201;DHT22;2114;50.398;8.814;2022-08-21T12:31:28;38.10;45.70
4201;DHT22;2114;50.398;8.814;2022-08-21T12:36:44;38.30;45.20
4201;DHT22;2114;50.398;8.814;2022-08-21T12:41:56;38.40;45.60
4201;DHT22;2114;50.398;8.814;2022-08-21T12:47:04;38.20;46.70
4201;DHT22;2114;50.398;8.814;2022-08-21T12:52:16;38.50;44.70
4201;DHT22;2114;50.398;8.814;2022-08-21T12:57:26;39.00;43.70
4201;DHT22;2114;50.398;8.814;2022-08-21T13:02:33;39.40;42.60
4201;DHT22;2114;50.398;8.814;2022-08-21T13:07:36;38.40;43.50
4201;DHT22;2114;50.398;8.814;2022-08-21T13:12:38;38.10;43.00
4201;DHT22;2114;50.398;8.814;2022-08-21T13:17:42;38.50;41.60
4201;DHT22;2114;50.398;8.814;2022-08-21T13:22:54;38.40;42.80
4201;DHT22;2114;50.398;8.814;2022-08-21T13:28:11;38.30;40.50
4201;DHT22;2114;50.398;8.814;2022-08-21T13:33:15;38.10;41.60
4201;DHT22;2114;50.398;8.814;2022-08-21T13:38:20;38.40;41.00
4201;DHT22;2114;50.398;8.814;2022-08-21T13:43:30;38.40;40.90
4201;DHT22;2114;50.398;8.814;2022-08-21T13:48:33;37.90;41.20
4201;DHT22;2114;50.398;8.814;2022-08-21T13:53:44;38.10;41.30
4201;DHT22;2114;50.398;8.814;2022-08-21T13:58:46;38.60;39.30
4201;DHT22;2114;50.398;8.814;2022-08-21T14:03:48;38.30;39.40
4201;DHT22;2114;50.398;8.814;2022-08-21T14:08:54;37.80;40.30
4201;DHT22;2114;50.398;8.814;2022-08-21T14:14:20;37.60;40.70
4201;DHT22;2114;50.398;8.814;2022-08-21T14:19:47;37.90;39.60
4201;DHT22;2114;50.398;8.814;2022-08-21T14:25:13;37.60;39.80
4201;DHT22;2114;50.398;8.814;2022-08-21T14:30:37;37.30;39.20
4201;DHT22;2114;50.398;8.814;2022-08-21T14:36:06;36.80;39.30
4201;DHT22;2114;50.398;8.814;2022-08-21T14:52:17;36.30;40.40
4201;DHT22;2114;50.398;8.814;2022-08-21T14:57:32;35.90;41.20
4201;DHT22;2114;50.398;8.814;2022-08-21T15:02:36;36.30;40.40
4201;DHT22;2114;50.398;8.814;2022-08-21T15:07:45;36.60;40.10
4201;DHT22;2114;50.398;8.814;2022-08-21T15:13:00;36.70;39.50
4201;DHT22;2114;50.398;8.814;2022-08-21T15:18:22;36.20;39.70
4201;DHT22;2114;50.398;8.814;2022-08-21T15:23:31;35.80;40.40
4201;DHT22;2114;50.398;8.814;2022-08-21T15:28:49;35.40;40.10
4201;DHT22;2114;50.398;8.814;2022-08-21T15:33:49;35.60;40.20
4201;DHT22;2114;50.398;8.814;2022-08-21T15:38:51;35.30;40.50
4201;DHT22;2114;50.398;8.814;2022-08-21T15:43:53;35.00;41.00
4201;DHT22;2114;50.398;8.814;2022-08-21T15:48:53;35.00;41.30
4201;DHT22;2114;50.398;8.814;2022-08-21T15:53:54;35.30;40.10
4201;DHT22;2114;50.398;8.814;2022-08-21T15:59:00;35.60;40.00
4201;DHT22;2114;50.398;8.814;2022-08-21T16:04:02;34.60;41.10
4201;DHT22;2114;50.398;8.814;2022-08-21T16:09:04;34.10;40.80
4201;DHT22;2114;50.398;8.814;2022-08-21T16:14:04;33.80;41.10
4201;DHT22;2114;50.398;8.814;2022-08-21T16:19:05;34.00;41.00
4201;DHT22;2114;50.398;8.814;2022-08-21T16:24:06;33.80;41.20
4201;DHT22;2114;50.398;8.814;2022-08-21T16:29:07;33.40;41.70
4201;DHT22;2114;50.398;8.814;2022-08-21T16:34:12;33.20;42.00
4201;DHT22;2114;50.398;8.814;2022-08-21T16:39:15;33.20;41.70
4201;DHT22;2114;50.398;8.814;2022-08-21T16:44:17;32.80;42.10
4201;DHT22;2114;50.398;8.814;2022-08-21T16:49:18;32.40;42.10
4201;DHT22;2114;50.398;8.814;2022-08-21T16:54:19;32.00;43.60
4201;DHT22;2114;50.398;8.814;2022-08-21T16:59:20;31.40;44.30
4201;DHT22;2114;50.398;8.814;2022-08-21T17:04:20;31.10;45.10
4201;DHT22;2114;50.398;8.814;2022-08-21T17:09:21;30.70;45.40
4201;DHT22;2114;50.398;8.814;2022-08-21T17:14:22;30.40;46.00
4201;DHT22;2114;50.398;8.814;2022-08-21T17:19:23;30.10;46.40
4201;DHT22;2114;50.398;8.814;2022-08-21T17:24:24;29.80;46.70
4201;DHT22;2114;50.398;8.814;2022-08-21T17:29:28;29.50;47.90
4201;DHT22;2114;50.398;8.814;2022-08-21T17:34:29;29.30;47.70
4201;DHT22;2114;50.398;8.814;2022-08-21T17:39:30;29.10;48.30
4201;DHT22;2114;50.398;8.814;2022-08-21T17:44:32;28.90;48.80
4201;DHT22;2114;50.398;8.814;2022-08-21T17:49:33;28.70;49.50
4201;DHT22;2114;50.398;8.814;2022-08-21T17:54:35;28.50;49.80
4201;DHT22;2114;50.398;8.814;2022-08-21T17:59:36;28.30;50.10
4201;DHT22;2114;50.398;8.814;2022-08-21T18:04:37;28.10;50.40
4201;DHT22;2114;50.398;8.814;2022-08-21T18:09:38;27.90;50.70
4201;DHT22;2114;50.398;8.814;2022-08-21T18:14:39;27.70;51.00
4201;DHT22;2114;50.398;8.814;2022-08-21T18:19:40;27.50;51.50
4201;DHT22;2114;50.398;8.814;2022-08-21T18:24:40;27.30;52.10
4201;DHT22;2114;50.398;8.814;2022-08-21T18:29:42;27.10;52.20
4201;DHT22;2114;50.398;8.814;2022-08-21T18:34:43;26.90;52.40
4201;DHT22;2114;50.398;8.814;2022-08-21T18:39:44;26.60;52.40
4201;DHT22;2114;50.398;8.814;2022-08-21T18:44:48;26.50;52.20
4201;DHT22;2114;50.398;8.814;2022-08-21T18:49:49;26.20;52.50
4201;DHT22;2114;50.398;8.814;2022-08-21T18:54:50;25.90;52.80
4201;DHT22;2114;50.398;8.814;2022-08-21T18:59:50;25.70;53.30
4201;DHT22;2114;50.398;8.814;2022-08-21T19:04:51;25.40;53.20
4201;DHT22;2114;50.398;8.814;2022-08-21T19:09:51;25.20;53.50
4201;DHT22;2114;50.398;8.814;2022-08-21T19:14:53;25.00;53.80
4201;DHT22;2114;50.398;8.814;2022-08-21T19:19:57;24.90;54.30
4201;DHT22;2114;50.398;8.814;2022-08-21T19:24:59;24.90;54.50
4201;DHT22;2114;50.398;8.814;2022-08-21T19:30:00;24.80;54.50
4201;DHT22;2114;50.398;8.814;2022-08-21T19:35:01;24.60;54.70
4201;DHT22;2114;50.398;8.814;2022-08-21T19:40:03;24.50;54.90
4201;DHT22;2114;50.398;8.814;2022-08-21T19:45:05;24.50;55.00
4201;DHT22;2114;50.398;8.814;2022-08-21T19:50:07;24.40;55.20
4201;DHT22;2114;50.398;8.814;2022-08-21T19:55:08;24.30;55.20
4201;DHT22;2114;50.398;8.814;2022-08-21T20:00:10;24.20;55.40
4201;DHT22;2114;50.398;8.814;2022-08-21T20:05:11;24.10;55.40
4201;DHT22;2114;50.398;8.814;2022-08-21T20:10:12;24.10;55.60
4201;DHT22;2114;50.398;8.814;2022-08-21T20:15:15;24.00;55.70
4201;DHT22;2114;50.398;8.814;2022-08-21T20:20:18;24.00;55.90
4201;DHT22;2114;50.398;8.814;2022-08-21T20:25:19;23.90;56.30
4201;DHT22;2114;50.398;8.814;2022-08-21T20:30:20;23.80;56.90
4201;DHT22;2114;50.398;8.814;2022-08-21T20:35:20;23.80;57.10
4201;DHT22;2114;50.398;8.814;2022-08-21T20:40:21;23.80;57.60
4201;DHT22;2114;50.398;8.814;2022-08-21T20:50:26;23.60;58.50
4201;DHT22;2114;50.398;8.814;2022-08-21T20:55:30;23.50;59.30
4201;DHT22;2114;50.398;8.814;2022-08-21T21:00:37;23.40;59.70
4201;DHT22;2114;50.398;8.814;2022-08-21T21:05:56;23.40;60.10
4201;DHT22;2114;50.398;8.814;2022-08-21T21:11:01;23.30;60.40
4201;DHT22;2114;50.398;8.814;2022-08-21T21:16:09;23.20;60.60
4201;DHT22;2114;50.398;8.814;2022-08-21T21:21:33;23.10;61.00
4201;DHT22;2114;50.398;8.814;2022-08-21T21:31:51;23.00;61.60
4201;DHT22;2114;50.398;8.814;2022-08-21T21:36:59;22.90;61.90
4201;DHT22;2114;50.398;8.814;2022-08-21T21:42:26;22.90;61.90
4201;DHT22;2114;50.398;8.814;2022-08-21T21:48:00;22.80;61.60
4201;DHT22;2114;50.398;8.814;2022-08-21T22:03:53;22.60;63.00
4201;DHT22;2114;50.398;8.814;2022-08-21T22:09:04;22.50;63.20
4201;DHT22;2114;50.398;8.814;2022-08-21T22:14:15;22.40;63.60
4201;DHT22;2114;50.398;8.814;2022-08-21T22:19:21;22.30;63.90
4201;DHT22;2114;50.398;8.814;2022-08-21T22:24:30;22.30;64.00
4201;DHT22;2114;50.398;8.814;2022-08-21T22:40:00;22.00;64.80
4201;DHT22;2114;50.398;8.814;2022-08-21T22:45:05;22.00;65.00
4201;DHT22;2114;50.398;8.814;2022-08-21T22:55:38;21.80;65.60
4201;DHT22;2114;50.398;8.814;2022-08-21T23:05:55;21.70;66.20
4201;DHT22;2114;50.398;8.814;2022-08-21T23:11:04;21.70;66.50
4201;DHT22;2114;50.398;8.814;2022-08-21T23:37:42;21.40;68.60
4201;DHT22;2114;50.398;8.814;2022-08-21T23:58:53;21.10;68.50
